createdAt,value
2023-04-15T00:01:19.484Z,8.60
2023-04-15T00:04:06.496Z,8.54
2023-04-15T00:06:53.763Z,8.77
2023-04-15T00:09:39.666Z,8.96
2023-04-15T00:12:26.237Z,8.78
2023-04-15T00:15:12.681Z,8.89
2023-04-15T00:17:59.871Z,8.90
2023-04-15T00:20:45.712Z,8.60
2023-04-15T00:23:31.600Z,8.88
2023-04-15T00:26:19.197Z,8.81
2023-04-15T00:29:07.029Z,8.64
2023-04-15T00:31:55.410Z,8.94
2023-04-15T00:34:41.826Z,8.77
2023-04-15T00:37:28.108Z,8.79
2023-04-15T00:40:14.309Z,8.87
2023-04-15T00:43:00.484Z,8.56
2023-04-15T00:45:47.218Z,8.71
2023-04-15T00:48:33.867Z,8.49
2023-04-15T00:51:20.120Z,8.80
2023-04-15T00:54:07.924Z,8.71
2023-04-15T00:56:56.814Z,8.91
2023-04-15T00:59:43.603Z,8.50
2023-04-15T01:02:30.174Z,8.81
2023-04-15T01:05:18.704Z,8.82
2023-04-15T01:08:04.554Z,8.19
2023-04-15T01:10:50.821Z,8.84
2023-04-15T01:13:36.837Z,8.59
2023-04-15T01:16:23.272Z,8.43
2023-04-15T01:19:10.909Z,8.38
2023-04-15T01:21:57.724Z,8.09
2023-04-15T01:24:55.590Z,8.29
2023-04-15T01:27:42.722Z,8.11
2023-04-15T01:30:29.306Z,8.42
2023-04-15T01:33:16.527Z,8.22
2023-04-15T01:36:23.363Z,8.51
2023-04-15T01:39:13.724Z,8.62
2023-04-15T01:41:59.460Z,8.54
2023-04-15T01:44:47.281Z,8.50
2023-04-15T01:47:34.618Z,8.56
2023-04-15T01:50:22.652Z,8.13
2023-04-15T01:53:09.870Z,7.85
2023-04-15T01:55:57.356Z,7.80
2023-04-15T01:58:44.796Z,8.50
2023-04-15T02:01:32.318Z,8.50
2023-04-15T02:04:19.911Z,8.24
2023-04-15T02:07:07.391Z,8.44
2023-04-15T02:09:55.539Z,8.26
2023-04-15T02:12:43.143Z,8.49
2023-04-15T02:15:30.616Z,8.12
2023-04-15T02:18:18.165Z,8.49
2023-04-15T02:21:07.189Z,8.19
2023-04-15T02:23:54.317Z,8.48
2023-04-15T02:26:41.662Z,8.49
2023-04-15T02:29:29.329Z,8.40
2023-04-15T02:32:17.244Z,8.26
2023-04-15T02:35:06.562Z,8.20
2023-04-15T02:37:53.482Z,8.47
2023-04-15T02:40:41.052Z,8.23
2023-04-15T02:43:28.272Z,8.12
2023-04-15T02:46:15.770Z,8.21
2023-04-15T02:49:03.562Z,8.45
2023-04-15T02:51:51.390Z,8.46
2023-04-15T02:54:39.438Z,7.83
2023-04-15T02:57:28.830Z,8.16
2023-04-15T03:00:18.457Z,8.20
2023-04-15T03:03:08.084Z,8.51
2023-04-15T03:05:55.212Z,8.50
2023-04-15T03:08:42.434Z,8.27
2023-04-15T03:11:29.899Z,8.33
2023-04-15T03:14:17.151Z,8.06
2023-04-15T03:17:06.909Z,8.41
2023-04-15T03:19:54.508Z,8.31
2023-04-15T03:22:42.368Z,7.96
2023-04-15T03:25:29.750Z,8.16
2023-04-15T03:28:16.714Z,8.27
2023-04-15T03:31:04.105Z,8.19
2023-04-15T03:33:51.424Z,8.28
2023-04-15T03:36:39.173Z,7.94
2023-04-15T03:39:26.314Z,8.18
2023-04-15T03:42:14.034Z,8.02
2023-04-15T03:45:01.163Z,8.14
2023-04-15T03:47:49.893Z,7.84
2023-04-15T03:51:07.096Z,7.61
2023-04-15T03:54:11.809Z,7.28
2023-04-15T03:57:13.366Z,7.19
2023-04-15T04:20:34.096Z,7.68
2023-04-15T04:23:21.495Z,7.90
2023-04-15T04:26:08.271Z,7.84
2023-04-15T04:28:55.779Z,7.89
2023-04-15T04:31:42.619Z,7.70
2023-04-15T04:34:29.764Z,7.66
2023-04-15T04:37:16.880Z,7.89
2023-04-15T04:40:04.782Z,7.66
2023-04-15T04:42:51.631Z,7.87
2023-04-15T04:45:38.821Z,7.65
2023-04-15T04:48:26.105Z,7.53
2023-04-15T04:51:13.328Z,7.90
2023-04-15T04:54:01.817Z,7.94
2023-04-15T04:56:50.969Z,7.72
2023-04-15T04:59:38.113Z,7.93
2023-04-15T05:02:27.154Z,7.92
2023-04-15T05:05:14.629Z,7.93
2023-04-15T05:08:02.103Z,7.82
2023-04-15T05:10:49.116Z,7.92
2023-04-15T05:13:38.710Z,7.73
2023-04-15T05:16:26.018Z,7.95
2023-04-15T05:19:13.486Z,7.92
2023-04-15T05:22:00.967Z,7.95
2023-04-15T05:24:48.235Z,7.75
2023-04-15T05:27:35.659Z,7.95
2023-04-15T05:30:22.782Z,7.98
2023-04-15T05:33:09.773Z,7.82
2023-04-15T05:35:57.249Z,8.00
2023-04-15T05:38:44.432Z,7.99
2023-04-15T05:41:31.669Z,8.00
2023-04-15T05:44:18.898Z,7.99
2023-04-15T05:47:07.909Z,7.84
2023-04-15T05:49:55.609Z,7.66
2023-04-15T05:52:42.736Z,8.00
2023-04-15T05:55:29.823Z,8.05
2023-04-15T05:58:17.334Z,7.85
2023-04-15T06:01:04.377Z,8.05
2023-04-15T06:03:51.719Z,8.05
2023-04-15T06:06:39.140Z,8.09
2023-04-15T06:09:26.422Z,8.10
2023-04-15T06:12:13.838Z,8.13
2023-04-15T06:15:01.121Z,8.14
2023-04-15T06:17:48.410Z,8.01
2023-04-15T06:20:36.813Z,8.02
2023-04-15T06:23:23.628Z,8.20
2023-04-15T06:26:11.348Z,8.20
2023-04-15T06:28:58.422Z,8.22
2023-04-15T06:31:47.883Z,8.24
2023-04-15T06:34:35.093Z,8.05
2023-04-15T06:37:22.507Z,8.28
2023-04-15T06:40:10.132Z,8.19
2023-04-15T06:42:57.289Z,8.32
2023-04-15T06:45:44.778Z,8.32
2023-04-15T06:48:32.464Z,8.31
2023-04-15T06:51:19.546Z,8.32
2023-04-15T06:54:06.738Z,8.31
2023-04-15T06:56:53.808Z,8.38
2023-04-15T06:59:41.198Z,8.39
2023-04-15T07:05:16.522Z,8.40
2023-04-15T07:08:03.710Z,8.41
2023-04-15T07:10:51.792Z,8.42
2023-04-15T07:13:38.823Z,8.46
2023-04-15T07:16:28.636Z,8.46
2023-04-15T07:19:17.462Z,8.46
2023-04-15T07:22:04.868Z,8.46
2023-04-15T07:24:51.726Z,8.50
2023-04-15T07:27:39.145Z,8.50
2023-04-15T07:30:26.249Z,8.48
2023-04-15T07:33:13.779Z,8.48
2023-04-15T07:36:00.523Z,8.52
2023-04-15T07:38:48.274Z,8.54
2023-04-15T07:41:34.974Z,8.51
2023-04-15T07:44:22.362Z,8.57
2023-04-15T07:47:09.590Z,8.60
2023-04-15T07:49:56.548Z,8.59
2023-04-15T07:52:44.025Z,8.54
2023-04-15T07:55:31.311Z,8.43
2023-04-15T07:58:18.241Z,8.58
2023-04-15T08:01:05.946Z,8.62
2023-04-15T08:03:53.327Z,8.59
2023-04-15T08:06:40.940Z,8.62
2023-04-15T08:09:27.858Z,8.62
2023-04-15T08:12:15.970Z,8.61
2023-04-15T08:15:04.737Z,8.59
2023-04-15T08:17:53.049Z,8.64
2023-04-15T08:20:40.624Z,8.46
2023-04-15T08:23:27.883Z,8.67
2023-04-15T08:26:15.187Z,8.70
2023-04-15T08:29:02.854Z,8.53
2023-04-15T08:31:49.833Z,8.49
2023-04-15T08:34:37.665Z,8.75
2023-04-15T08:37:24.547Z,8.77
2023-04-15T08:40:12.738Z,8.41
2023-04-15T08:43:01.111Z,8.78
2023-04-15T08:45:49.792Z,8.71
2023-04-15T08:48:39.525Z,8.88
2023-04-15T08:51:27.668Z,8.91
2023-04-15T08:54:14.565Z,8.98
2023-04-15T08:57:02.649Z,9.11
2023-04-15T08:59:49.801Z,9.18
2023-04-15T09:02:37.723Z,9.29
2023-04-15T09:05:24.921Z,9.30
2023-04-15T09:08:12.707Z,9.40
2023-04-15T09:10:59.793Z,9.31
2023-04-15T09:13:47.103Z,9.24
2023-04-15T09:16:58.860Z,9.48
2023-04-15T09:19:46.043Z,9.55
2023-04-15T09:22:33.354Z,9.55
2023-04-15T09:25:31.133Z,9.61
2023-04-15T09:28:25.720Z,9.56
2023-04-15T09:31:13.169Z,9.43
2023-04-15T09:34:00.605Z,9.66
2023-04-15T09:36:50.955Z,9.70
2023-04-15T09:39:53.957Z,9.71
2023-04-15T09:42:56.709Z,9.74
2023-04-15T09:45:53.646Z,9.83
2023-04-15T09:48:41.053Z,9.84
2023-04-15T09:51:38.030Z,9.87
2023-04-15T09:54:25.483Z,9.85
2023-04-15T09:57:13.208Z,9.84
2023-04-15T10:00:00.431Z,9.75
2023-04-15T10:02:48.349Z,9.98
2023-04-15T10:05:35.600Z,9.98
2023-04-15T10:08:25.257Z,9.96
2023-04-15T10:11:12.849Z,9.95
2023-04-15T10:14:00.731Z,9.96
2023-04-15T10:16:51.917Z,9.92
2023-04-15T10:19:39.128Z,9.94
2023-04-15T10:22:28.201Z,10.00
2023-04-15T10:25:15.756Z,9.92
2023-04-15T10:28:03.555Z,9.97
2023-04-15T10:30:50.547Z,9.96
2023-04-15T10:33:39.124Z,9.95
2023-04-15T10:36:26.335Z,9.98
2023-04-15T10:39:39.156Z,10.03
2023-04-15T10:42:34.538Z,10.01
2023-04-15T10:45:21.793Z,10.09
2023-04-15T10:48:09.213Z,9.91
2023-04-15T10:51:03.788Z,10.05
2023-04-15T10:53:50.860Z,10.07
2023-04-15T10:56:38.100Z,10.08
2023-04-15T10:59:25.386Z,10.10
2023-04-15T11:02:13.560Z,10.10
2023-04-15T11:05:01.962Z,10.05
2023-04-15T11:07:51.893Z,10.07
2023-04-15T11:10:38.611Z,10.06
2023-04-15T11:13:28.322Z,10.07
2023-04-15T11:16:15.617Z,9.86
2023-04-15T11:19:03.603Z,10.01
2023-04-15T11:21:50.349Z,9.91
2023-04-15T11:24:47.449Z,10.05
2023-04-15T11:27:34.519Z,10.10
2023-04-15T11:30:23.546Z,10.16
2023-04-15T11:33:14.774Z,10.23
2023-04-15T11:36:02.466Z,10.05
2023-04-15T11:38:49.470Z,10.32
2023-04-15T11:41:37.012Z,10.29
2023-04-15T11:44:24.114Z,10.30
2023-04-15T11:47:24.664Z,10.25
2023-04-15T11:50:22.558Z,10.09
2023-04-15T11:53:10.114Z,10.15
2023-04-15T11:55:55.726Z,10.00
2023-04-15T11:58:42.541Z,9.81
2023-04-15T12:01:32.912Z,9.84
2023-04-15T12:04:23.511Z,9.81
2023-04-15T12:07:11.449Z,9.62
2023-04-15T12:09:57.917Z,9.74
2023-04-15T12:12:43.645Z,9.85
2023-04-15T12:15:29.881Z,9.87
2023-04-15T12:18:19.292Z,9.84
2023-04-15T12:21:14.811Z,9.75
2023-04-15T12:24:03.770Z,9.75
2023-04-15T12:26:52.771Z,9.66
2023-04-15T12:29:40.082Z,9.71
2023-04-15T12:32:26.266Z,9.75
2023-04-15T12:35:11.971Z,9.76
2023-04-15T12:37:57.725Z,9.84
2023-04-15T12:40:43.866Z,9.87
2023-04-15T12:43:29.755Z,9.79
2023-04-15T12:46:15.852Z,9.76
2023-04-15T12:49:02.196Z,9.99
2023-04-15T12:51:52.810Z,10.01
2023-04-15T12:54:39.292Z,10.04
2023-04-15T12:57:24.767Z,10.07
2023-04-15T13:00:11.368Z,9.85
2023-04-15T13:02:56.884Z,10.01
2023-04-15T13:05:43.213Z,10.03
2023-04-15T13:08:28.717Z,10.06
2023-04-15T13:11:14.877Z,10.10
2023-04-15T13:14:07.519Z,10.09
2023-04-15T13:16:54.206Z,9.97
2023-04-15T13:19:39.965Z,10.01
2023-04-15T13:22:26.352Z,9.96
2023-04-15T13:25:15.663Z,9.95
2023-04-15T13:28:01.689Z,9.97
2023-04-15T13:30:49.018Z,9.98
2023-04-15T13:33:35.409Z,10.01
2023-04-15T13:36:21.181Z,10.06
2023-04-15T13:39:07.019Z,10.07
2023-04-15T13:41:52.841Z,10.07
2023-04-15T13:44:39.156Z,10.00
2023-04-15T13:47:25.060Z,10.09
2023-04-15T13:50:11.331Z,10.05
2023-04-15T13:52:56.945Z,10.06
2023-04-15T13:55:43.407Z,10.04
2023-04-15T13:58:29.080Z,10.05
2023-04-15T14:01:15.681Z,9.98
2023-04-15T14:04:01.911Z,9.96
2023-04-15T14:06:48.285Z,10.00
2023-04-15T14:09:35.348Z,9.90
2023-04-15T14:12:21.664Z,10.02
2023-04-15T14:15:07.615Z,10.13
2023-04-15T14:17:54.068Z,10.10
2023-04-15T14:20:40.186Z,10.18
2023-04-15T14:23:26.350Z,9.99
2023-04-15T14:26:11.835Z,9.95
2023-04-15T14:28:58.230Z,9.92
2023-04-15T14:32:04.147Z,10.20
2023-04-15T14:34:50.780Z,10.30
2023-04-15T14:37:36.073Z,10.29
2023-04-15T14:40:22.064Z,10.30
2023-04-15T14:43:07.781Z,10.35
2023-04-15T14:45:53.889Z,10.41
2023-04-15T14:48:39.268Z,10.46
2023-04-15T14:51:25.258Z,10.30
2023-04-15T14:54:10.811Z,10.51
2023-04-15T14:56:56.385Z,10.36
2023-04-15T14:59:42.130Z,10.55
2023-04-15T15:02:38.271Z,10.55
2023-04-15T15:05:26.394Z,10.70
2023-04-15T15:08:12.830Z,10.80
2023-04-15T15:10:58.889Z,10.75
2023-04-15T15:13:45.277Z,10.66
2023-04-15T15:16:31.746Z,10.79
2023-04-15T15:19:18.065Z,10.77
2023-04-15T15:22:03.771Z,10.85
2023-04-15T15:24:50.090Z,10.90
2023-04-15T15:27:38.152Z,10.76
2023-04-15T15:30:24.210Z,10.81
2023-04-15T15:33:10.036Z,10.82
2023-04-15T15:35:55.791Z,10.66
2023-04-15T15:38:41.792Z,10.88
2023-04-15T15:41:27.652Z,10.89
2023-04-15T15:44:13.322Z,10.90
2023-04-15T15:46:59.430Z,10.91
2023-04-15T15:49:45.176Z,10.88
2023-04-15T15:52:30.867Z,10.87
2023-04-15T15:55:16.527Z,10.85
2023-04-15T15:58:02.145Z,10.91
2023-04-15T16:00:47.958Z,10.78
2023-04-15T16:03:34.517Z,10.88
2023-04-15T16:06:20.227Z,10.87
2023-04-15T16:09:06.252Z,10.92
2023-04-15T16:11:52.255Z,10.70
2023-04-15T16:14:38.038Z,10.93
2023-04-15T16:17:23.800Z,10.90
2023-04-15T16:20:10.513Z,10.92
2023-04-15T16:22:59.310Z,10.93
2023-04-15T16:25:45.700Z,10.88
2023-04-15T16:28:31.723Z,10.93
2023-04-15T16:31:18.005Z,10.71
2023-04-15T16:34:04.018Z,10.76
2023-04-15T16:36:49.997Z,10.89
2023-04-15T16:39:35.731Z,10.88
2023-04-15T16:42:22.097Z,10.89
2023-04-15T16:45:08.003Z,10.71
2023-04-15T16:47:54.332Z,10.91
2023-04-15T16:50:39.959Z,10.91
2023-04-15T16:53:26.248Z,10.74
2023-04-15T16:56:11.624Z,10.90
2023-04-15T16:58:57.510Z,10.84
2023-04-15T17:01:42.984Z,10.86
2023-04-15T17:04:30.604Z,10.89
2023-04-15T17:07:16.169Z,10.89
2023-04-15T17:10:02.375Z,10.88
2023-04-15T17:12:47.765Z,10.87
2023-04-15T17:15:33.404Z,10.88
2023-04-15T17:18:38.229Z,10.74
2023-04-15T17:21:32.666Z,10.89
2023-04-15T17:24:19.400Z,10.87
2023-04-15T17:27:11.422Z,10.73
2023-04-15T17:29:59.039Z,10.84
2023-04-15T17:33:57.624Z,10.87
2023-04-15T17:36:31.834Z,10.83
2023-04-15T17:39:37.790Z,10.81
2023-04-15T17:42:43.639Z,10.69
2023-04-15T17:45:49.231Z,10.83
2023-04-15T17:48:55.050Z,10.78
2023-04-15T17:52:01.300Z,10.74
2023-04-15T17:55:07.887Z,10.67
2023-04-15T17:58:13.887Z,10.61
2023-04-15T18:01:19.666Z,10.75
2023-04-15T18:04:26.917Z,10.75
2023-04-15T18:07:32.775Z,10.77
2023-04-15T18:10:39.164Z,10.64
2023-04-15T18:13:44.971Z,10.69
2023-04-15T18:16:51.929Z,10.77
2023-04-15T18:19:57.845Z,10.77
2023-04-15T18:22:44.179Z,10.77
2023-04-15T18:25:30.139Z,10.74
2023-04-15T18:28:16.305Z,10.79
2023-04-15T18:31:03.468Z,10.78
2023-04-15T18:33:49.303Z,10.75
2023-04-15T18:36:34.889Z,10.77
2023-04-15T18:39:20.645Z,10.65
2023-04-15T18:42:06.275Z,10.76
2023-04-15T18:44:52.946Z,10.78
2023-04-15T18:47:38.655Z,10.78
2023-04-15T18:50:24.432Z,10.79
2023-04-15T18:53:28.099Z,10.79
2023-04-15T18:56:06.368Z,10.14
2023-04-15T18:59:09.382Z,10.59
2023-04-15T19:02:00.224Z,10.63
2023-04-15T19:04:46.317Z,10.56
2023-04-15T19:07:32.307Z,10.69
2023-04-15T19:10:17.766Z,10.76
2023-04-15T19:13:04.512Z,10.76
2023-04-15T19:15:49.944Z,10.75
2023-04-15T19:18:35.817Z,10.62
2023-04-15T19:21:21.504Z,10.55
2023-04-15T19:24:07.344Z,10.43
2023-04-15T19:26:52.891Z,10.22
2023-04-15T19:29:38.593Z,10.30
2023-04-15T19:32:24.480Z,10.19
2023-04-15T19:35:11.653Z,10.01
2023-04-15T19:37:57.734Z,9.67
2023-04-15T19:40:43.820Z,9.77
2023-04-15T19:43:29.851Z,9.65
2023-04-15T19:46:15.718Z,9.67
2023-04-15T19:49:01.454Z,9.61
2023-04-15T19:51:50.645Z,9.54
2023-04-15T19:54:36.222Z,9.67
2023-04-15T19:57:21.897Z,9.72
2023-04-15T20:00:08.210Z,9.65
2023-04-15T20:02:56.001Z,9.51
2023-04-15T20:05:41.688Z,9.63
2023-04-15T20:08:27.309Z,9.67
2023-04-15T20:11:13.362Z,9.74
2023-04-15T20:14:01.824Z,9.63
2023-04-15T20:16:47.856Z,9.78
2023-04-15T20:19:33.971Z,9.77
2023-04-15T20:22:19.604Z,9.75
2023-04-15T20:25:06.099Z,9.79
2023-04-15T20:27:51.618Z,9.79
2023-04-15T20:30:39.423Z,9.68
2023-04-15T20:33:25.776Z,9.69
2023-04-15T20:36:11.774Z,9.65
2023-04-15T20:38:57.495Z,9.55
2023-04-15T20:41:43.791Z,9.54
2023-04-15T20:44:29.392Z,9.50
2023-04-15T20:47:15.531Z,9.46
2023-04-15T20:50:01.484Z,9.50
2023-04-15T20:52:47.310Z,9.44
2023-04-15T20:55:32.915Z,9.40
2023-04-15T20:58:19.180Z,9.36
2023-04-15T21:01:04.786Z,9.26
2023-04-15T21:03:51.058Z,9.19
2023-04-15T21:06:36.948Z,9.17
2023-04-15T21:09:23.095Z,8.97
2023-04-15T21:12:09.959Z,8.93
2023-04-15T21:14:56.256Z,9.05
2023-04-15T21:17:42.009Z,9.04
2023-04-15T21:20:28.283Z,9.00
2023-04-15T21:23:13.977Z,9.00
2023-04-15T21:26:00.234Z,8.86
2023-04-15T21:28:46.635Z,8.92
2023-04-15T21:31:32.667Z,8.92
2023-04-15T21:34:18.076Z,8.73
2023-04-15T21:37:03.893Z,8.79
2023-04-15T21:39:49.248Z,8.97
2023-04-15T21:42:35.017Z,8.99
2023-04-15T21:45:20.699Z,9.04
2023-04-15T21:48:08.375Z,8.92
2023-04-15T21:51:01.647Z,9.16
2023-04-15T21:53:47.817Z,9.15
2023-04-15T21:56:33.494Z,9.19
2023-04-15T21:59:19.376Z,9.19
2023-04-15T22:02:05.103Z,9.24
2023-04-15T22:04:51.327Z,9.01
2023-04-15T22:07:36.856Z,9.15
2023-04-15T22:10:22.752Z,9.26
2023-04-15T22:13:11.751Z,9.31
2023-04-15T22:15:57.484Z,9.37
2023-04-15T22:18:43.024Z,9.38
2023-04-15T22:21:28.690Z,9.36
2023-04-15T22:24:32.284Z,9.47
2023-04-15T22:27:20.701Z,9.51
2023-04-15T22:30:06.612Z,9.57
2023-04-15T22:32:52.448Z,9.58
2023-04-15T22:35:38.411Z,9.36
2023-04-15T22:38:24.306Z,9.56
2023-04-15T22:41:09.870Z,9.61
2023-04-15T22:43:55.982Z,9.61
2023-04-15T22:46:41.559Z,9.60
2023-04-15T22:49:27.919Z,9.52
2023-04-15T22:52:23.354Z,9.57
2023-04-15T22:55:15.887Z,9.51
2023-04-15T22:58:01.384Z,9.71
2023-04-15T23:00:46.992Z,9.78
2023-04-15T23:03:33.142Z,9.77
2023-04-15T23:06:39.154Z,9.52
2023-04-15T23:09:24.755Z,9.60
2023-04-15T23:12:10.901Z,9.61
2023-04-15T23:14:57.150Z,9.33
2023-04-15T23:17:43.457Z,9.43
2023-04-15T23:20:29.435Z,9.46
2023-04-15T23:23:15.683Z,9.47
2023-04-15T23:26:01.825Z,9.53
2023-04-15T23:28:47.970Z,9.53
2023-04-15T23:31:33.433Z,9.44
2023-04-15T23:34:19.594Z,9.42
2023-04-15T23:37:05.547Z,9.33
2023-04-15T23:39:51.911Z,9.14
2023-04-15T23:42:37.829Z,9.28
2023-04-15T23:45:23.754Z,9.24
2023-04-15T23:48:09.163Z,8.98
2023-04-15T23:50:55.000Z,9.04
2023-04-15T23:53:40.608Z,9.21
2023-04-15T23:56:26.538Z,8.96
2023-04-15T23:59:12.312Z,9.09
